Time;durP1;ratioP1;P1;durP2;ratioP2;P2;SDS_P1;SDS_P2;PMS_P1;PMS_P2;Temp;Humidity;BMP_temperature;BMP_pressure;BME280_temperature;BME280_humidity;BME280_pressure;Samples;Min_cycle;Max_cycle;Signal;HPM_P1;HPM_P2
2022/10/30 00:00:52;;;;;;;3.17;1.95;;;;;;;7.64;87.88;95428.13;5106874;28;20757;-79
2022/10/30 00:03:19;;;;;;;2.67;1.75;;;;;;;7.50;88.35;95419.13;5100394;28;20315;-77
2022/10/30 00:05:48;;;;;;;4.20;2.72;;;;;;;7.61;88.21;95426.00;5110867;28;20251;-79
2022/10/30 00:08:17;;;;;;;4.13;2.13;;;;;;;7.55;88.76;95431.72;5110632;28;20220;-79
2022/10/30 00:10:46;;;;;;;2.85;2.00;;;;;;;7.59;88.49;95432.78;5110461;28;20663;-79
2022/10/30 00:13:14;;;;;;;4.55;2.38;;;;;;;7.65;87.90;95427.03;5110596;28;20278;-79
2022/10/30 00:15:47;;;;;;;5.63;3.10;;;;;;;7.69;88.01;95419.97;5110536;28;20231;-79
2022/10/30 00:18:14;;;;;;;2.88;1.80;;;;;;;7.61;87.88;95423.31;5109748;28;20571;-79
2022/10/30 00:20:42;;;;;;;4.20;2.15;;;;;;;7.61;87.31;95426.00;5109996;28;20646;-79
2022/10/30 00:23:09;;;;;;;4.75;2.60;;;;;;;7.52;87.84;95426.94;5109581;28;20237;-79
2022/10/30 00:25:36;;;;;;;2.35;1.63;;;;;;;7.50;88.30;95438.00;5110098;28;20205;-79
2022/10/30 00:28:05;;;;;;;3.75;2.75;;;;;;;7.62;87.42;95422.22;5109500;28;20198;-79
2022/10/30 00:30:33;;;;;;;3.70;2.38;;;;;;;7.54;87.44;95422.84;5109960;28;20205;-79
2022/10/30 00:32:59;;;;;;;5.93;3.05;;;;;;;7.44;87.63;95420.28;5110072;28;20606;-78
2022/10/30 00:35:26;;;;;;;9.32;4.85;;;;;;;7.34;88.07;95418.50;5110484;28;20201;-77
2022/10/30 00:37:53;;;;;;;8.38;5.40;;;;;;;7.35;87.49;95416.63;5096076;28;20362;-78
2022/10/30 00:40:20;;;;;;;11.23;7.03;;;;;;;7.31;88.20;95432.56;5110147;28;20294;-77
2022/10/30 00:42:46;;;;;;;9.90;6.22;;;;;;;7.34;88.36;95428.50;5110020;28;20282;-78
2022/10/30 00:45:17;;;;;;;8.63;5.35;;;;;;;7.39;87.96;95423.03;5109725;28;20246;-78
2022/10/30 00:47:46;;;;;;;7.65;4.82;;;;;;;7.31;88.25;95424.47;5109615;28;20837;-78
2022/10/30 00:50:19;;;;;;;8.27;5.13;;;;;;;7.29;88.34;95409.66;5109806;28;20189;-77
2022/10/30 00:52:50;;;;;;;7.95;4.90;;;;;;;7.30;88.37;95408.59;5109585;28;20270;-79
2022/10/30 00:55:20;;;;;;;7.05;5.00;;;;;;;7.25;88.51;95420.22;5109846;28;20205;-78
2022/10/30 00:57:49;;;;;;;9.63;5.30;;;;;;;7.24;88.86;95417.84;5109767;28;20258;-78
2022/10/30 01:00:20;;;;;;;9.57;5.32;;;;;;;7.21;88.97;95418.41;5109426;28;20252;-79
2022/10/30 01:02:48;;;;;;;11.18;5.90;;;;;;;7.21;88.51;95415.72;5109663;28;20205;-78
2022/10/30 01:05:18;;;;;;;4.32;2.42;;;;;;;7.29;88.02;95415.06;5109626;28;20255;-78
2022/10/30 01:07:45;;;;;;;2.92;2.10;;;;;;;7.20;88.15;95408.72;5109958;28;20205;-78
2022/10/30 01:10:12;;;;;;;5.47;2.67;;;;;;;7.08;88.08;95401.03;5109508;28;20247;-79
2022/10/30 01:12:40;;;;;;;2.67;2.38;;;;;;;7.18;87.96;95395.53;5109711;28;20744;-79
2022/10/30 01:15:08;;;;;;;3.88;2.83;;;;;;;7.16;88.00;95402.28;5108841;28;20286;-79
2022/10/30 01:17:54;;;;;;;2.95;2.35;;;;;;;7.20;87.95;95389.84;5089700;28;20206;-78
2022/10/30 01:20:34;;;;;;;4.95;2.58;;;;;;;7.13;88.36;95388.28;5106293;28;20329;-78
2022/10/30 01:23:11;;;;;;;3.33;2.13;;;;;;;7.04;89.60;95383.81;5095875;28;20190;-79
2022/10/30 01:25:52;;;;;;;3.08;2.10;;;;;;;7.00;90.06;95378.19;5096078;28;20239;-79
2022/10/30 01:28:35;;;;;;;3.53;2.00;;;;;;;7.02;90.67;95381.41;5093279;28;20542;-79
2022/10/30 01:31:15;;;;;;;4.80;2.17;;;;;;;6.99;90.88;95376.59;5100180;28;20212;-79
2022/10/30 01:33:57;;;;;;;3.40;2.30;;;;;;;7.05;91.08;95370.06;5109263;28;20246;-79
2022/10/30 01:36:29;;;;;;;6.05;2.35;;;;;;;6.94;90.64;95376.66;5109344;28;20246;-79
2022/10/30 01:38:59;;;;;;;2.60;2.25;;;;;;;6.96;90.63;95384.47;5109418;28;20226;-79
2022/10/30 01:41:26;;;;;;;4.32;2.83;;;;;;;6.85;90.94;95385.63;5113623;28;20221;-79
2022/10/30 01:43:57;;;;;;;3.92;2.20;;;;;;;6.74;90.82;95371.47;5113196;28;20259;-79
2022/10/30 01:46:38;;;;;;;8.80;2.70;;;;;;;6.82;91.05;95375.47;5113086;28;20244;-79
2022/10/30 01:49:36;;;;;;;2.83;2.08;;;;;;;6.96;91.02;95377.19;5113311;28;20725;-79
2022/10/30 01:52:11;;;;;;;14.00;6.70;;;;;;;6.93;90.67;95366.97;5112780;28;20300;-79
2022/10/30 01:54:45;;;;;;;10.10;6.22;;;;;;;6.83;90.05;95368.97;5112693;28;20292;-79
2022/10/30 01:57:23;;;;;;;10.10;6.07;;;;;;;6.89;90.00;95376.72;5113173;28;20246;-79
2022/10/30 01:59:54;;;;;;;13.25;6.80;;;;;;;6.94;90.24;95373.97;5112841;28;20224;-79
2022/10/30 02:02:21;;;;;;;7.95;5.75;;;;;;;6.89;91.05;95378.59;5112379;28;20645;-79
2022/10/30 02:04:49;;;;;;;9.88;6.57;;;;;;;6.81;91.17;95369.28;5112974;28;20197;-79
2022/10/30 02:07:16;;;;;;;6.15;3.00;;;;;;;6.80;91.19;95367.66;5113202;28;20202;-79
2022/10/30 02:09:43;;;;;;;3.40;2.30;;;;;;;6.81;91.49;95366.56;5113004;28;20206;-79
2022/10/30 02:12:10;;;;;;;3.00;2.15;;;;;;;6.83;91.57;95361.72;5099421;28;20270;-79
2022/10/30 02:14:43;;;;;;;5.22;2.70;;;;;;;6.85;91.57;95364.91;5112590;28;20300;-78
2022/10/30 02:17:10;;;;;;;3.03;2.33;;;;;;;6.79;91.35;95363.38;5112973;28;20201;-78
2022/10/30 02:19:40;;;;;;;4.15;2.45;;;;;;;6.87;91.17;95361.91;5113351;28;20628;-79
2022/10/30 02:22:08;;;;;;;5.40;3.78;;;;;;;6.87;91.28;95362.72;5111912;28;20222;-78
2022/10/30 02:24:35;;;;;;;7.50;2.80;;;;;;;6.83;91.13;95361.72;5112496;28;20390;-78
2022/10/30 02:27:02;;;;;;;4.85;2.75;;;;;;;6.82;91.10;95362.78;5112261;28;20206;-80
2022/10/30 02:29:28;;;;;;;7.57;2.58;;;;;;;6.80;91.45;95362.28;5112197;28;20250;-79
2022/10/30 02:31:55;;;;;;;3.28;2.80;;;;;;;6.74;92.16;95363.41;5106501;28;20573;-78
2022/10/30 02:34:22;;;;;;;2.38;1.98;;;;;;;6.71;91.99;95364.78;5104988;28;20246;-80
2022/10/30 02:36:49;;;;;;;4.68;2.78;;;;;;;6.72;92.59;95365.56;5112218;28;20337;-79
2022/10/30 02:39:18;;;;;;;11.30;6.13;;;;;;;6.78;92.35;95359.06;5112510;28;20233;-79
2022/10/30 02:41:45;;;;;;;14.15;7.43;;;;;;;6.88;91.89;95361.63;5112407;28;20245;-79
2022/10/30 02:44:12;;;;;;;3.78;2.67;;;;;;;6.94;92.20;95357.81;5112197;28;20581;-79
2022/10/30 02:46:39;;;;;;;5.13;3.05;;;;;;;6.95;92.11;95358.63;5111887;28;20233;-79
2022/10/30 02:49:06;;;;;;;11.30;3.35;;;;;;;6.86;92.82;95363.81;5098197;28;20255;-79
2022/10/30 02:51:32;;;;;;;4.20;2.58;;;;;;;6.77;93.48;95360.16;5111291;28;20262;-79
2022/10/30 02:53:59;;;;;;;14.27;3.25;;;;;;;6.76;93.72;95366.63;5111614;28;20202;-78
2022/10/30 02:56:28;;;;;;;3.42;2.70;;;;;;;6.77;93.81;95362.84;5111671;28;20628;-78
2022/10/30 02:58:55;;;;;;;7.43;3.60;;;;;;;6.75;93.62;95359.63;5111606;28;20205;-78
2022/10/30 03:01:22;;;;;;;5.15;4.55;;;;;;;6.74;93.56;95363.41;5111503;28;20240;-78
2022/10/30 03:03:48;;;;;;;7.47;4.60;;;;;;;6.82;93.35;95367.38;5112196;28;20206;-80
2022/10/30 03:06:17;;;;;;;4.15;2.72;;;;;;;6.78;93.74;95364.44;5111490;28;20573;-78
2022/10/30 03:08:44;;;;;;;4.05;2.65;;;;;;;6.77;93.69;95360.16;5111390;28;20667;-79
2022/10/30 03:11:13;;;;;;;4.93;3.58;;;;;;;6.73;93.62;95372.56;5111564;28;20214;-78
2022/10/30 03:13:43;;;;;;;6.50;4.45;;;;;;;6.75;94.00;95376.59;5111209;28;20209;-78
2022/10/30 03:16:11;;;;;;;5.00;2.42;;;;;;;6.78;93.91;95383.28;5110720;28;20286;-78
2022/10/30 03:18:38;;;;;;;5.65;2.67;;;;;;;6.80;93.50;95378.44;5111674;28;20255;-78
2022/10/30 03:21:07;;;;;;;3.88;3.15;;;;;;;6.82;92.90;95381.66;5111443;28;20233;-78
2022/10/30 03:23:34;;;;;;;5.38;2.80;;;;;;;6.78;92.27;95391.38;5106556;28;20225;-78
2022/10/30 03:26:01;;;;;;;4.05;2.70;;;;;;;6.69;91.80;95388.50;5102265;28;20937;-78
2022/10/30 03:28:30;;;;;;;2.85;2.50;;;;;;;6.67;92.33;95390.69;5110831;28;20197;-78
2022/10/30 03:31:03;;;;;;;3.35;2.50;;;;;;;6.66;92.69;95389.06;5111408;28;20664;-79
2022/10/30 03:33:30;;;;;;;4.13;2.28;;;;;;;6.67;91.75;95384.50;5110750;28;20228;-80
2022/10/30 03:35:57;;;;;;;3.72;2.42;;;;;;;6.54;91.64;95374.38;5111095;28;20213;-79
2022/10/30 03:38:24;;;;;;;3.60;2.55;;;;;;;6.52;92.45;95373.84;5111380;28;20566;-79
2022/10/30 03:40:51;;;;;;;10.93;7.18;;;;;;;6.43;93.67;95374.44;5110760;28;20799;-79
2022/10/30 03:43:18;;;;;;;11.43;6.97;;;;;;;6.39;94.18;95378.81;5111316;28;20725;-79
2022/10/30 03:45:47;;;;;;;10.32;7.00;;;;;;;6.47;94.34;95384.66;5110313;28;20237;-79
2022/10/30 03:48:16;;;;;;;13.32;7.85;;;;;;;6.37;94.62;95370.22;5111023;28;20194;-79
2022/10/30 03:50:43;;;;;;;10.68;7.53;;;;;;;6.37;94.53;95372.91;5110757;28;20549;-79
2022/10/30 03:53:10;;;;;;;10.82;6.90;;;;;;;6.36;94.82;95374.00;5111061;28;20251;-79
2022/10/30 03:55:37;;;;;;;10.77;7.60;;;;;;;6.27;95.02;95374.88;5110187;28;20266;-79
2022/10/30 03:58:04;;;;;;;10.65;7.13;;;;;;;6.24;95.11;95378.94;5111125;28;20258;-79
2022/10/30 04:00:31;;;;;;;11.88;7.45;;;;;;;6.23;94.53;95371.94;5110147;28;20997;-79
2022/10/30 04:02:58;;;;;;;10.32;7.32;;;;;;;6.18;93.22;95377.38;5110081;28;20263;-79
2022/10/30 04:05:28;;;;;;;10.27;6.90;;;;;;;6.25;93.34;95371.69;5110079;28;20270;-80
2022/10/30 04:07:58;;;;;;;16.00;7.90;;;;;;;6.14;93.69;95373.66;5110863;28;20609;-79
2022/10/30 04:10:25;;;;;;;11.23;7.25;;;;;;;6.11;94.07;95368.81;5110673;28;20213;-79
2022/10/30 04:12:53;;;;;;;12.38;7.22;;;;;;;6.14;93.88;95365.59;5110413;28;20254;-79
2022/10/30 04:15:20;;;;;;;15.38;8.43;;;;;;;6.05;94.82;95367.25;5110667;28;20212;-80
2022/10/30 04:17:50;;;;;;;4.97;2.80;;;;;;;6.14;96.73;95364.78;5109634;28;20683;-78
2022/10/30 04:20:17;;;;;;;4.10;2.92;;;;;;;6.12;97.09;95367.75;5110120;28;20293;-79
2022/10/30 04:22:46;;;;;;;7.00;2.70;;;;;;;6.10;97.03;95369.91;5101998;28;20355;-79
2022/10/30 04:25:13;;;;;;;3.33;2.60;;;;;;;6.09;97.24;95368.31;5103948;28;20606;-79
2022/10/30 04:27:40;;;;;;;3.45;2.65;;;;;;;6.07;98.00;95362.41;5109584;28;20266;-80
2022/10/30 04:30:09;;;;;;;4.45;2.83;;;;;;;6.10;97.85;95364.53;5109378;28;20208;-80
2022/10/30 04:32:36;;;;;;;7.82;2.72;;;;;;;6.18;97.50;95366.59;5091607;28;20197;-79
2022/10/30 04:35:04;;;;;;;5.03;2.85;;;;;;;6.22;97.01;95367.66;5109767;28;20226;-79
2022/10/30 04:37:31;;;;;;;5.40;3.60;;;;;;;6.24;96.05;95365.50;5108907;28;20217;-79
2022/10/30 04:39:59;;;;;;;11.20;3.40;;;;;;;6.25;94.80;95367.09;5109672;28;20262;-80
2022/10/30 04:42:25;;;;;;;3.00;2.60;;;;;;;6.23;94.64;95363.88;5110075;28;20233;-79
2022/10/30 04:44:52;;;;;;;6.43;3.33;;;;;;;6.15;95.03;95377.91;5109730;28;20259;-80
2022/10/30 04:47:21;;;;;;;4.25;2.97;;;;;;;5.96;95.71;95374.31;5109352;28;20244;-80
2022/10/30 04:49:48;;;;;;;5.80;3.35;;;;;;;5.95;96.40;95384.25;5098148;28;20202;-79
2022/10/30 04:52:15;;;;;;;5.20;3.08;;;;;;;6.05;96.50;95383.38;5099723;28;20557;-79
2022/10/30 04:54:41;;;;;;;4.10;2.75;;;;;;;6.05;97.12;95380.69;5098440;28;20557;-77
2022/10/30 04:57:09;;;;;;;4.25;3.22;;;;;;;6.11;96.94;95376.91;5105225;28;20205;-77
2022/10/30 04:59:36;;;;;;;3.28;2.65;;;;;;;6.24;96.88;95376.25;5103006;28;20698;-79
2022/10/30 05:02:03;;;;;;;5.20;3.00;;;;;;;6.35;96.30;95372.38;5097607;28;20222;-79
2022/10/30 05:04:30;;;;;;;6.47;2.58;;;;;;;6.42;95.22;95382.84;5100565;28;20198;-79
2022/10/30 05:06:57;;;;;;;6.85;2.97;;;;;;;6.51;94.50;95385.72;5097346;28;20538;-79
2022/10/30 05:09:23;;;;;;;4.75;3.17;;;;;;;6.51;93.97;95383.03;5102712;28;20262;-79
2022/10/30 05:11:50;;;;;;;6.95;3.38;;;;;;;6.60;93.89;95389.38;5100455;28;20195;-79
2022/10/30 05:14:18;;;;;;;5.85;2.97;;;;;;;6.62;94.38;95379.13;5100793;28;20205;-79
2022/10/30 05:16:45;;;;;;;8.77;5.30;;;;;;;6.75;94.18;95384.66;5101543;28;20190;-78
2022/10/30 05:19:12;;;;;;;3.70;2.95;;;;;;;6.88;93.92;95385.06;5105186;28;20198;-78
2022/10/30 05:21:38;;;;;;;4.93;3.28;;;;;;;7.02;94.02;95386.81;5105835;28;20283;-78
2022/10/30 05:24:06;;;;;;;4.30;3.00;;;;;;;7.67;92.53;95395.16;5101118;28;20202;-78
2022/10/30 05:26:33;;;;;;;9.77;4.60;;;;;;;8.31;90.45;95374.81;5103687;28;20206;-79
2022/10/30 05:29:00;;;;;;;10.07;3.63;;;;;;;8.88;88.12;95375.50;5104248;28;20206;-78
2022/10/30 05:31:28;;;;;;;7.78;3.72;;;;;;;9.10;85.73;95375.63;5113438;28;20729;-79
2022/10/30 05:33:54;;;;;;;8.55;3.58;;;;;;;9.53;83.25;95378.00;5113300;28;20197;-79
2022/10/30 05:36:21;;;;;;;6.78;3.90;;;;;;;9.83;81.75;95385.50;5099473;28;20209;-79
2022/10/30 05:38:48;;;;;;;6.05;3.83;;;;;;;10.06;80.08;95383.63;5112932;28;20267;-79
2022/10/30 05:41:15;;;;;;;9.73;4.55;;;;;;;10.24;77.81;95381.91;5110223;28;20294;-79
2022/10/30 05:43:42;;;;;;;7.10;4.07;;;;;;;11.31;75.73;95372.63;5102641;28;20270;-79
2022/10/30 05:46:08;;;;;;;12.50;3.58;;;;;;;11.96;73.10;95366.44;5113187;28;20709;-81
2022/10/30 05:48:37;;;;;;;4.63;3.20;;;;;;;12.91;69.95;95363.66;5113533;28;20206;-80
2022/10/30 05:51:05;;;;;;;6.40;3.85;;;;;;;13.46;67.63;95366.34;5099765;28;20202;-80
2022/10/30 05:53:32;;;;;;;7.45;4.15;;;;;;;14.11;65.31;95362.28;5113137;28;20246;-80
2022/10/30 05:55:59;;;;;;;9.20;4.97;;;;;;;14.48;63.29;95359.78;5113220;28;20258;-80
2022/10/30 05:58:26;;;;;;;6.60;3.97;;;;;;;14.33;62.82;95357.66;5112456;28;20201;-80
2022/10/30 06:00:53;;;;;;;6.63;4.30;;;;;;;15.04;61.53;95343.81;5112265;28;20282;-79
2022/10/30 06:03:20;;;;;;;4.88;3.20;;;;;;;15.43;60.10;95343.22;5111708;28;20262;-79
2022/10/30 06:05:48;;;;;;;7.95;3.70;;;;;;;15.89;59.40;95341.94;5113208;28;20201;-79
2022/10/30 06:08:16;;;;;;;5.65;4.18;;;;;;;15.56;58.88;95338.56;5112378;28;20656;-80
2022/10/30 06:10:43;;;;;;;17.15;4.85;;;;;;;15.68;59.40;95341.31;5112621;28;20244;-78
2022/10/30 06:13:10;;;;;;;9.52;4.88;;;;;;;15.63;57.31;95345.06;5112604;28;20669;-81
2022/10/30 06:15:37;;;;;;;16.52;5.70;;;;;;;15.26;58.42;95352.41;5112578;28;20681;-81
2022/10/30 06:18:04;;;;;;;7.90;4.93;;;;;;;15.02;60.26;95346.91;5112446;28;20274;-81
2022/10/30 06:20:31;;;;;;;10.05;5.10;;;;;;;14.54;60.60;95361.16;5112463;28;20636;-79
2022/10/30 06:23:01;;;;;;;13.25;8.27;;;;;;;14.59;60.76;95350.06;5099627;28;20225;-77
2022/10/30 06:25:29;;;;;;;11.57;7.68;;;;;;;14.60;62.35;95351.66;5112142;28;20206;-79
2022/10/30 06:27:55;;;;;;;12.90;8.48;;;;;;;14.61;62.33;95357.91;5111472;28;20209;-78
2022/10/30 06:30:24;;;;;;;13.60;9.05;;;;;;;14.43;62.72;95355.34;5112122;28;20221;-82
2022/10/30 06:34:18;;;;;;;12.40;4.97;;;;;;;13.88;64.97;95363.72;5086248;27;20561;-77
2022/10/30 06:36:48;;;;;;;9.63;5.38;;;;;;;13.66;64.92;95361.31;5068905;28;20202;-79
2022/10/30 06:39:15;;;;;;;14.13;9.60;;;;;;;13.12;66.56;95369.16;5059462;28;20276;-79
2022/10/30 06:41:42;;;;;;;8.30;5.20;;;;;;;12.44;67.89;95368.19;5066354;28;20195;-79
2022/10/30 06:44:08;;;;;;;8.52;5.65;;;;;;;12.17;68.71;95368.50;5052239;28;20261;-78
2022/10/30 06:46:35;;;;;;;10.63;6.45;;;;;;;11.72;71.21;95368.75;5053879;28;20274;-79
2022/10/30 06:49:02;;;;;;;16.33;9.45;;;;;;;11.30;73.32;95371.03;5058431;28;20256;-80
2022/10/30 06:51:31;;;;;;;8.88;5.50;;;;;;;11.33;74.46;95369.63;5056392;28;20269;-79
2022/10/30 06:53:58;;;;;;;8.63;5.38;;;;;;;11.40;73.88;95372.66;5054757;28;20713;-80
2022/10/30 06:56:25;;;;;;;8.25;4.38;;;;;;;11.15;75.01;95378.78;5063480;28;20195;-78
2022/10/30 06:58:52;;;;;;;7.95;4.88;;;;;;;11.11;75.53;95384.03;5078416;28;20279;-79
2022/10/30 07:01:18;;;;;;;15.43;6.80;;;;;;;11.16;76.30;95386.63;5082690;28;20198;-80
2022/10/30 07:03:45;;;;;;;9.70;5.97;;;;;;;11.20;76.57;95382.16;5082329;28;20276;-79
2022/10/30 07:06:12;;;;;;;11.30;6.25;;;;;;;11.54;75.59;95377.97;5063611;28;20207;-78
2022/10/30 07:08:40;;;;;;;10.32;5.28;;;;;;;11.66;75.45;95375.44;5062955;28;20211;-79
2022/10/30 07:11:07;;;;;;;15.70;10.35;;;;;;;11.88;75.29;95375.38;5062898;28;20214;-79
2022/10/30 07:13:33;;;;;;;11.35;6.75;;;;;;;11.84;75.07;95382.53;5063356;28;20234;-78
2022/10/30 07:16:00;;;;;;;12.02;6.20;;;;;;;12.15;74.65;95371.56;5063541;28;20199;-78
2022/10/30 07:18:27;;;;;;;13.15;6.38;;;;;;;12.10;74.92;95367.09;5078861;28;20207;-79
2022/10/30 07:20:54;;;;;;;9.77;5.97;;;;;;;12.27;74.63;95357.34;5083011;28;20213;-79
2022/10/30 07:23:21;;;;;;;8.27;5.20;;;;;;;12.73;73.62;95359.34;5068755;28;20195;-79
2022/10/30 07:25:50;;;;;;;10.80;6.35;;;;;;;12.77;72.89;95358.41;5063348;28;20207;-80
2022/10/30 07:28:18;;;;;;;9.68;5.78;;;;;;;12.69;72.52;95364.66;5063517;28;20670;-80
2022/10/30 07:30:44;;;;;;;19.50;7.72;;;;;;;12.93;71.77;95360.59;5063275;28;20206;-81
2022/10/30 07:33:11;;;;;;;11.60;6.57;;;;;;;12.91;71.26;95357.41;5061888;28;20649;-79
2022/10/30 07:35:38;;;;;;;11.27;7.40;;;;;;;13.14;70.53;95353.31;5062166;28;20694;-80
2022/10/30 07:38:06;;;;;;;17.70;7.30;;;;;;;13.37;70.24;95343.03;5062564;28;20698;-80
2022/10/30 07:40:33;;;;;;;17.55;12.05;;;;;;;13.09;70.23;95353.53;5062768;28;20276;-79
2022/10/30 07:43:05;;;;;;;16.38;11.48;;;;;;;12.82;71.87;95355.53;5062936;28;20222;-79
2022/10/30 07:45:33;;;;;;;11.93;7.35;;;;;;;12.49;72.43;95357.16;5060627;28;20298;-80
2022/10/30 07:47:59;;;;;;;12.75;7.13;;;;;;;12.75;72.30;95360.63;5060326;28;20207;-79
2022/10/30 07:50:26;;;;;;;13.52;7.72;;;;;;;12.94;71.70;95351.31;5041188;28;20203;-81
2022/10/30 07:52:53;;;;;;;9.85;6.68;;;;;;;13.07;71.24;95350.31;5049196;28;20236;-81
2022/10/30 07:55:20;;;;;;;13.05;7.93;;;;;;;13.16;71.82;95342.94;5049861;28;20250;-81
2022/10/30 07:57:47;;;;;;;12.45;7.90;;;;;;;13.39;70.68;95338.06;5049082;28;20245;-80
2022/10/30 08:00:18;;;;;;;9.23;6.40;;;;;;;13.54;70.12;95334.75;5049379;28;20265;-80
2022/10/30 08:02:49;;;;;;;11.00;6.38;;;;;;;13.71;70.08;95331.16;5036498;28;20207;-79
2022/10/30 08:05:16;;;;;;;14.95;6.90;;;;;;;13.65;69.89;95327.84;5049379;28;20261;-80
2022/10/30 08:07:46;;;;;;;18.60;11.35;;;;;;;13.66;69.80;95328.63;5048757;28;20207;-80
2022/10/30 08:10:13;;;;;;;10.70;7.13;;;;;;;13.86;69.97;95323.19;5049235;28;20310;-80
2022/10/30 08:12:42;;;;;;;9.48;6.13;;;;;;;13.84;69.46;95330.09;5049005;28;20224;-80
2022/10/30 08:15:10;;;;;;;11.13;6.47;;;;;;;13.81;69.56;95325.31;5049094;28;20286;-79
2022/10/30 08:17:43;;;;;;;13.93;7.28;;;;;;;13.91;68.92;95308.59;5047837;28;20473;-80
2022/10/30 08:20:11;;;;;;;19.67;12.65;;;;;;;14.04;69.07;95312.97;5034086;28;20206;-79
2022/10/30 08:22:44;;;;;;;9.98;7.65;;;;;;;14.18;68.68;95318.97;5059607;28;20210;-78
2022/10/30 08:25:11;;;;;;;11.82;6.57;;;;;;;14.52;67.85;95311.63;5053276;28;20552;-82
2022/10/30 08:27:38;;;;;;;9.15;5.63;;;;;;;14.60;67.38;95308.03;5049996;28;20281;-81
2022/10/30 08:30:06;;;;;;;19.73;6.80;;;;;;;14.70;67.12;95307.59;5049621;28;20211;-79
2022/10/30 08:32:33;;;;;;;14.40;6.90;;;;;;;14.63;67.15;95301.09;5049435;28;20277;-81
2022/10/30 08:35:01;;;;;;;12.77;8.13;;;;;;;14.64;67.23;95314.38;5050219;28;20605;-81
2022/10/30 08:37:27;;;;;;;10.77;7.78;;;;;;;14.93;66.70;95310.72;5050461;28;20668;-79
2022/10/30 08:39:54;;;;;;;14.02;7.63;;;;;;;15.04;66.47;95306.41;5049969;28;20212;-78
2022/10/30 08:42:21;;;;;;;13.48;7.28;;;;;;;15.14;65.82;95310.66;5049523;28;20301;-78
2022/10/30 08:44:48;;;;;;;12.75;7.85;;;;;;;15.22;65.56;95307.00;5049835;28;20269;-79
2022/10/30 08:47:15;;;;;;;10.45;6.80;;;;;;;15.55;64.58;95305.00;5049645;28;20208;-78
2022/10/30 08:49:44;;;;;;;15.45;10.77;;;;;;;15.76;63.43;95304.84;5037014;28;20200;-77
2022/10/30 08:52:12;;;;;;;18.00;11.40;;;;;;;15.67;63.76;95300.66;5050866;28;20269;-76
2022/10/30 08:54:38;;;;;;;20.40;10.88;;;;;;;15.75;63.37;95299.72;5050257;28;20317;-78
2022/10/30 08:57:05;;;;;;;16.00;11.52;;;;;;;15.58;63.36;95304.28;5049644;28;20208;-79
2022/10/30 08:59:33;;;;;;;12.90;7.55;;;;;;;15.55;63.59;95288.63;5050107;28;20627;-77
2022/10/30 09:02:00;;;;;;;12.93;7.65;;;;;;;15.56;63.70;95284.75;5050352;28;20617;-79
2022/10/30 09:04:27;;;;;;;14.70;7.38;;;;;;;15.54;63.94;95281.53;5050386;28;20211;-81
2022/10/30 09:06:53;;;;;;;17.92;11.30;;;;;;;15.58;63.73;95279.72;5049892;28;20260;-78
2022/10/30 09:09:21;;;;;;;17.08;10.80;;;;;;;15.75;63.88;95277.88;5050931;28;20199;-80
2022/10/30 09:11:48;;;;;;;11.85;7.05;;;;;;;16.06;62.61;95279.97;5049411;28;20204;-79
2022/10/30 09:14:15;;;;;;;16.58;10.73;;;;;;;16.06;62.45;95269.84;5049615;28;20314;-78
2022/10/30 09:16:42;;;;;;;15.95;10.55;;;;;;;15.93;62.36;95273.75;5050269;28;20261;-79
2022/10/30 09:19:09;;;;;;;18.50;10.35;;;;;;;16.03;62.45;95269.72;5050464;28;20208;-83
2022/10/30 09:21:36;;;;;;;11.75;7.95;;;;;;;16.24;61.70;95265.69;5052631;28;20211;-81
2022/10/30 09:24:03;;;;;;;18.83;11.57;;;;;;;16.46;61.05;95266.28;5049780;28;20208;-79
2022/10/30 09:26:32;;;;;;;21.23;10.68;;;;;;;16.49;60.87;95265.56;5049288;28;20728;-80
2022/10/30 09:28:58;;;;;;;15.85;9.57;;;;;;;16.78;60.60;95261.69;5057710;28;20211;-81
2022/10/30 09:31:25;;;;;;;15.07;10.05;;;;;;;16.75;60.40;95267.88;5053884;28;20577;-84
2022/10/30 09:33:52;;;;;;;17.23;10.55;;;;;;;16.84;60.14;95261.06;5049087;28;20247;-79
2022/10/30 09:36:22;;;;;;;15.95;10.23;;;;;;;17.09;59.77;95258.16;5062659;28;20203;-79
2022/10/30 09:38:48;;;;;;;12.40;8.73;;;;;;;16.88;60.13;95261.16;5060989;28;20736;-80
2022/10/30 09:41:40;;;;;;;13.07;9.18;;;;;;;17.02;59.64;95251.38;5049292;28;20207;-78
2022/10/30 09:44:21;;;;;;;14.73;9.25;;;;;;;16.82;60.14;95251.63;5049316;28;20273;-80
2022/10/30 09:47:01;;;;;;;17.05;10.00;;;;;;;17.09;60.17;95247.22;5036735;28;20613;-81
2022/10/30 09:49:47;;;;;;;18.10;10.35;;;;;;;16.98;59.73;95233.28;5048355;28;20631;-81
2022/10/30 09:52:22;;;;;;;13.82;9.23;;;;;;;17.37;58.65;95228.72;5046155;28;20257;-81
2022/10/30 09:55:16;;;;;;;14.63;9.27;;;;;;;17.66;57.91;95231.00;5049152;28;20217;-79
2022/10/30 09:57:54;;;;;;;13.80;9.50;;;;;;;17.84;57.14;95230.59;5048807;28;20719;-82
2022/10/30 10:00:23;;;;;;;14.82;9.93;;;;;;;17.92;57.10;95227.66;5046329;28;20659;-80
2022/10/30 10:03:14;;;;;;;16.17;10.73;;;;;;;17.85;57.31;95221.22;5048554;28;20265;-82
2022/10/30 10:05:46;;;;;;;13.98;9.50;;;;;;;18.06;56.72;95216.97;5047795;28;20195;-81
2022/10/30 10:08:18;;;;;;;14.35;9.30;;;;;;;18.26;56.21;95208.75;5047645;28;20682;-81
2022/10/30 10:10:50;;;;;;;11.88;8.32;;;;;;;18.14;55.70;95206.16;5048005;28;20200;-78
2022/10/30 10:13:26;;;;;;;11.18;8.38;;;;;;;18.21;55.79;95201.59;5046986;28;20270;-78
2022/10/30 10:15:58;;;;;;;13.27;8.60;;;;;;;18.01;55.52;95198.09;5044916;28;20725;-85
2022/10/30 10:18:30;;;;;;;10.35;7.55;;;;;;;18.06;55.40;95184.06;5049345;28;20200;-79
2022/10/30 10:21:01;;;;;;;12.13;6.50;;;;;;;18.32;54.74;95186.13;5050547;28;20208;-80
2022/10/30 10:23:35;;;;;;;13.18;5.80;;;;;;;18.17;53.57;95178.81;5048612;28;20249;-77
2022/10/30 10:26:15;;;;;;;6.28;4.28;;;;;;;18.35;52.41;95166.22;5039912;28;20207;-80
2022/10/30 10:28:57;;;;;;;6.65;5.07;;;;;;;18.53;53.03;95163.00;5049289;28;20298;-78
2022/10/30 10:31:35;;;;;;;7.75;5.43;;;;;;;18.65;53.43;95162.84;5050247;28;20196;-79
2022/10/30 10:34:19;;;;;;;8.05;4.97;;;;;;;18.98;52.03;95157.56;5048577;28;20293;-76
2022/10/30 10:36:54;;;;;;;10.80;6.18;;;;;;;19.07;52.25;95155.31;5067819;28;20202;-80
2022/10/30 10:39:33;;;;;;;8.50;4.97;;;;;;;19.21;51.09;95151.22;5068749;28;20741;-83
2022/10/30 10:42:14;;;;;;;7.57;4.93;;;;;;;19.26;50.78;95148.97;5069360;28;20194;-80
2022/10/30 10:44:51;;;;;;;5.53;3.55;;;;;;;19.09;50.28;95144.78;5050471;28;20269;-80
2022/10/30 10:47:36;;;;;;;8.00;4.55;;;;;;;19.32;51.06;95138.44;5033068;28;20258;-79
2022/10/30 10:50:15;;;;;;;4.47;3.55;;;;;;;19.37;49.53;95138.13;5037487;28;20357;-81
2022/10/30 10:52:47;;;;;;;4.75;3.30;;;;;;;19.51;49.95;95141.09;5049284;28;20755;-80
2022/10/30 10:55:17;;;;;;;7.45;5.53;;;;;;;19.50;50.86;95139.50;5048868;28;20281;-79
2022/10/30 10:57:46;;;;;;;6.72;4.28;;;;;;;19.42;50.87;95132.28;5066910;28;20249;-81
2022/10/30 11:00:18;;;;;;;7.65;4.07;;;;;;;19.51;50.72;95130.91;5069035;28;20257;-77
2022/10/30 11:02:55;;;;;;;5.88;3.38;;;;;;;19.49;50.45;95129.69;5068676;28;20261;-79
2022/10/30 11:05:29;;;;;;;4.10;3.10;;;;;;;19.56;50.07;95126.22;5053639;28;20195;-81
2022/10/30 11:08:01;;;;;;;5.25;3.22;;;;;;;19.74;48.93;95122.53;5047979;28;20208;-78
2022/10/30 11:10:28;;;;;;;4.97;3.55;;;;;;;19.74;48.72;95106.03;5047250;28;20328;-80
2022/10/30 11:12:54;;;;;;;3.78;2.85;;;;;;;19.94;46.75;95108.66;5047867;28;20207;-81
2022/10/30 11:15:37;;;;;;;3.55;2.83;;;;;;;20.10;46.46;95100.94;5046714;28;20243;-78
2022/10/30 11:18:06;;;;;;;5.28;2.85;;;;;;;19.96;47.19;95098.03;5047753;28;20625;-79
2022/10/30 11:20:41;;;;;;;3.28;2.63;;;;;;;20.02;46.94;95093.78;5051233;28;20242;-78
2022/10/30 11:23:31;;;;;;;5.10;2.85;;;;;;;20.23;46.71;95088.50;5065483;28;20198;-82
2022/10/30 11:25:58;;;;;;;4.72;2.85;;;;;;;20.28;45.71;95088.16;5051430;28;20721;-79
2022/10/30 11:28:41;;;;;;;3.30;2.60;;;;;;;20.18;45.90;95092.41;5051847;28;20258;-84
2022/10/30 11:31:20;;;;;;;5.43;3.08;;;;;;;20.31;46.36;95072.88;5053476;28;20686;-84
2022/10/30 11:33:48;;;;;;;3.47;2.33;;;;;;;20.43;46.18;95070.66;5050807;28;20313;-81
2022/10/30 11:36:16;;;;;;;6.40;3.40;;;;;;;20.56;46.30;95076.66;5051289;28;20268;-79
2022/10/30 11:38:42;;;;;;;4.15;3.00;;;;;;;20.61;46.36;95075.53;5051330;28;20695;-80
2022/10/30 11:41:10;;;;;;;5.20;2.40;;;;;;;20.75;45.46;95070.16;5050823;28;20588;-79
2022/10/30 11:43:39;;;;;;;5.50;3.05;;;;;;;20.87;45.59;95067.88;5051112;28;20226;-79
2022/10/30 11:46:08;;;;;;;4.13;2.50;;;;;;;20.83;45.01;95066.25;5049834;28;20215;-73